createdAt,value
2022-12-03T00:00:00.695Z,2.7
2022-12-03T00:01:00.501Z,2.7
2022-12-03T00:02:00.500Z,2.8
2022-12-03T00:03:00.674Z,2.8
2022-12-03T00:04:00.725Z,2.8
2022-12-03T00:05:00.477Z,2.8
2022-12-03T00:06:00.475Z,2.8
2022-12-03T00:07:00.474Z,2.8
2022-12-03T00:08:00.552Z,2.8
2022-12-03T00:09:00.637Z,2.8
2022-12-03T00:10:00.544Z,2.8
2022-12-03T00:11:00.482Z,2.8
2022-12-03T00:12:00.507Z,2.8
2022-12-03T00:13:00.477Z,2.8
2022-12-03T00:14:00.478Z,2.8
2022-12-03T00:15:00.509Z,2.8
2022-12-03T00:16:00.561Z,2.8
2022-12-03T00:17:00.475Z,2.8
2022-12-03T00:18:00.487Z,2.8
2022-12-03T00:19:00.479Z,2.8
2022-12-03T00:20:00.508Z,2.8
2022-12-03T00:21:00.509Z,2.8
2022-12-03T00:22:00.474Z,2.8
2022-12-03T00:23:00.478Z,2.8
2022-12-03T00:24:00.514Z,2.8
2022-12-03T00:25:00.518Z,2.8
2022-12-03T00:26:00.500Z,2.8
2022-12-03T00:27:00.477Z,2.8
2022-12-03T00:28:00.541Z,2.8
2022-12-03T00:29:00.501Z,2.8
2022-12-03T00:30:00.510Z,2.8
2022-12-03T00:31:00.549Z,2.8
2022-12-03T00:32:00.478Z,2.8
2022-12-03T00:33:00.472Z,2.8
2022-12-03T00:34:00.501Z,2.8
2022-12-03T00:35:00.610Z,2.8
2022-12-03T00:36:00.514Z,2.8
2022-12-03T00:37:00.500Z,2.8
2022-12-03T00:38:00.512Z,2.8
2022-12-03T00:39:00.496Z,2.8
2022-12-03T00:40:01.470Z,2.8
2022-12-03T00:41:00.496Z,2.8
2022-12-03T00:42:00.468Z,3.6
2022-12-03T00:43:00.484Z,3.6
2022-12-03T00:44:00.487Z,3.6
2022-12-03T00:45:00.494Z,3.6
2022-12-03T00:46:00.590Z,3.6
2022-12-03T00:47:00.608Z,3.6
2022-12-03T00:48:00.497Z,3.6
2022-12-03T00:49:00.472Z,3.6
2022-12-03T00:50:00.478Z,3.6
2022-12-03T00:51:00.506Z,3.6
2022-12-03T00:52:00.526Z,3.6
2022-12-03T00:53:00.485Z,3.6
2022-12-03T00:54:00.709Z,3.6
2022-12-03T00:55:00.527Z,3.6
2022-12-03T00:56:00.474Z,3.6
2022-12-03T00:57:00.499Z,3.6
2022-12-03T00:58:00.816Z,3.6
2022-12-03T00:59:00.477Z,3.6
2022-12-03T01:00:00.502Z,3.6
2022-12-03T01:01:00.507Z,3.6
2022-12-03T01:02:00.592Z,3.0
2022-12-03T01:03:00.709Z,3.0
2022-12-03T01:04:00.513Z,3.0
2022-12-03T01:05:00.655Z,3.0
2022-12-03T01:06:00.471Z,3.0
2022-12-03T01:07:00.518Z,3.0
2022-12-03T01:08:00.571Z,3.0
2022-12-03T01:09:00.470Z,3.0
2022-12-03T01:10:01.131Z,3.0
2022-12-03T01:11:00.540Z,3.0
2022-12-03T01:12:00.505Z,3.0
2022-12-03T01:13:00.515Z,3.0
2022-12-03T01:14:00.507Z,3.0
2022-12-03T01:15:00.741Z,3.0
2022-12-03T01:16:00.563Z,3.0
2022-12-03T01:17:00.507Z,3.0
2022-12-03T01:18:00.531Z,3.0
2022-12-03T01:19:00.564Z,3.0
2022-12-03T01:20:00.668Z,3.0
2022-12-03T01:21:00.485Z,3.0
2022-12-03T01:22:00.977Z,2.8
2022-12-03T01:23:00.616Z,2.8
2022-12-03T01:24:00.476Z,2.8
2022-12-03T01:25:00.586Z,2.8
2022-12-03T01:26:00.502Z,2.8
2022-12-03T01:27:00.557Z,2.8
2022-12-03T01:28:00.474Z,2.8
2022-12-03T01:29:00.526Z,2.8
2022-12-03T01:30:00.629Z,2.8
2022-12-03T01:31:00.544Z,2.8
2022-12-03T01:32:00.481Z,2.8
2022-12-03T01:33:00.506Z,2.8
2022-12-03T01:34:00.552Z,2.8
2022-12-03T01:35:00.537Z,2.8
2022-12-03T01:36:00.479Z,2.8
2022-12-03T01:37:00.475Z,2.8
2022-12-03T01:38:00.506Z,2.8
2022-12-03T01:39:01.445Z,2.8
2022-12-03T01:40:00.476Z,2.8
2022-12-03T01:41:00.502Z,2.8
2022-12-03T01:42:01.231Z,2.9
2022-12-03T01:43:00.484Z,2.9
2022-12-03T01:44:01.242Z,2.9
2022-12-03T01:45:00.718Z,2.9
2022-12-03T01:46:00.521Z,2.9
2022-12-03T01:47:01.942Z,2.9
2022-12-03T01:48:00.546Z,2.9
2022-12-03T01:49:00.484Z,2.9
2022-12-03T01:50:03.429Z,2.9
2022-12-03T01:51:00.713Z,2.9
2022-12-03T01:52:00.560Z,2.9
2022-12-03T01:53:01.669Z,2.9
2022-12-03T01:54:01.532Z,2.9
2022-12-03T01:55:02.511Z,2.9
2022-12-03T01:56:00.697Z,2.9
2022-12-03T01:57:00.525Z,2.9
2022-12-03T01:58:01.011Z,2.9
2022-12-03T01:59:00.492Z,2.9
2022-12-03T02:00:00.692Z,2.9
2022-12-03T02:01:03.296Z,3.0
2022-12-03T02:02:07.419Z,3.0
2022-12-03T02:03:01.153Z,3.0
2022-12-03T02:04:00.587Z,3.0
2022-12-03T02:05:05.010Z,3.0
2022-12-03T02:06:00.553Z,3.0
2022-12-03T02:07:10.452Z,3.0
2022-12-03T02:08:00.671Z,3.0
2022-12-03T02:09:00.486Z,3.0
2022-12-03T02:10:01.498Z,3.0
2022-12-03T02:11:01.903Z,3.0
2022-12-03T02:12:00.509Z,3.0
2022-12-03T02:13:03.660Z,3.0
2022-12-03T02:14:02.137Z,3.0
2022-12-03T02:15:00.946Z,3.0
2022-12-03T02:16:00.729Z,3.0
2022-12-03T02:17:00.583Z,3.0
2022-12-03T02:18:00.957Z,3.0
2022-12-03T02:19:00.922Z,3.0
2022-12-03T02:20:01.724Z,3.0
2022-12-03T02:21:10.428Z,3.0
2022-12-03T02:22:10.456Z,3.0
2022-12-03T02:23:06.230Z,3.0
2022-12-03T02:24:05.962Z,3.0
2022-12-03T02:25:10.476Z,3.0
2022-12-03T02:26:00.561Z,3.0
2022-12-03T02:27:00.556Z,3.0
2022-12-03T02:28:01.818Z,3.0
2022-12-03T02:29:00.571Z,3.0
2022-12-03T02:30:00.572Z,3.0
2022-12-03T02:31:00.575Z,3.0
2022-12-03T02:32:00.627Z,3.0
2022-12-03T02:33:00.865Z,3.0
2022-12-03T02:34:04.664Z,3.0
2022-12-03T02:35:00.516Z,3.0
2022-12-03T02:36:03.907Z,3.0
2022-12-03T02:37:00.951Z,3.0
2022-12-03T02:38:10.455Z,3.0
2022-12-03T02:39:01.062Z,3.0
2022-12-03T02:40:05.657Z,3.0
2022-12-03T02:41:03.260Z,3.0
2022-12-03T02:42:00.783Z,3.0
2022-12-03T02:43:02.207Z,3.0
2022-12-03T02:44:00.724Z,3.0
2022-12-03T02:45:10.074Z,3.0
2022-12-03T02:46:02.524Z,3.0
2022-12-03T02:47:00.762Z,3.0
2022-12-03T02:48:04.392Z,3.0
2022-12-03T02:49:01.265Z,3.0
2022-12-03T02:50:00.934Z,3.0
2022-12-03T02:51:02.761Z,3.0
2022-12-03T02:52:00.580Z,3.0
2022-12-03T02:53:04.171Z,3.0
2022-12-03T02:54:00.838Z,3.0
2022-12-03T02:55:01.679Z,3.0
2022-12-03T02:56:01.253Z,3.0
2022-12-03T02:57:00.892Z,3.0
2022-12-03T02:58:02.002Z,3.0
2022-12-03T02:59:02.113Z,3.0
2022-12-03T03:00:00.772Z,3.0
2022-12-03T03:01:01.441Z,2.9
2022-12-03T03:02:00.605Z,2.9
2022-12-03T03:03:02.020Z,2.9
2022-12-03T03:04:00.856Z,2.9
2022-12-03T03:05:00.556Z,2.9
2022-12-03T03:06:01.518Z,2.9
2022-12-03T03:07:00.489Z,2.9
2022-12-03T03:08:00.677Z,2.9
2022-12-03T03:09:01.331Z,2.9
2022-12-03T03:10:00.986Z,2.9
2022-12-03T03:11:00.941Z,2.9
2022-12-03T03:12:00.528Z,2.9
2022-12-03T03:13:01.484Z,2.9
2022-12-03T03:14:01.506Z,2.9
2022-12-03T03:15:00.499Z,2.9
2022-12-03T03:16:01.491Z,2.9
2022-12-03T03:17:00.569Z,2.9
2022-12-03T03:18:00.576Z,2.9
2022-12-03T03:19:01.032Z,2.9
2022-12-03T03:20:01.080Z,2.9
2022-12-03T03:21:01.138Z,2.7
2022-12-03T03:22:00.480Z,2.7
2022-12-03T03:23:10.444Z,2.7
2022-12-03T03:24:00.507Z,2.7
2022-12-03T03:25:01.152Z,2.7
2022-12-03T03:26:07.522Z,2.7
2022-12-03T03:27:00.527Z,2.7
2022-12-03T03:28:02.962Z,2.7
2022-12-03T03:29:00.507Z,2.7
2022-12-03T03:30:00.528Z,2.7
2022-12-03T03:31:01.583Z,2.7
2022-12-03T03:32:01.749Z,2.7
2022-12-03T03:33:00.620Z,2.7
2022-12-03T03:34:00.504Z,2.7
2022-12-03T03:35:01.295Z,2.7
2022-12-03T03:36:01.093Z,2.7
2022-12-03T03:37:00.550Z,2.7
2022-12-03T03:38:00.577Z,2.7
2022-12-03T03:39:00.715Z,2.7
2022-12-03T03:40:00.717Z,2.7
2022-12-03T03:41:01.292Z,2.9
2022-12-03T03:42:00.683Z,2.9
2022-12-03T03:43:00.739Z,2.9
2022-12-03T03:44:02.255Z,2.9
2022-12-03T03:45:00.758Z,2.9
2022-12-03T03:46:02.226Z,2.9
2022-12-03T03:47:01.215Z,2.9
2022-12-03T03:48:00.565Z,2.9
2022-12-03T03:49:01.156Z,2.9
2022-12-03T03:50:01.197Z,2.9
2022-12-03T03:51:01.964Z,2.9
2022-12-03T03:52:00.670Z,2.9
2022-12-03T03:53:01.077Z,2.9
2022-12-03T03:54:01.644Z,2.9
2022-12-03T03:55:00.576Z,2.9
2022-12-03T03:56:00.518Z,2.9
2022-12-03T03:57:00.660Z,2.9
2022-12-03T03:58:00.573Z,2.9
2022-12-03T03:59:00.968Z,2.9
2022-12-03T04:00:00.627Z,2.9
2022-12-03T04:01:00.714Z,2.9
2022-12-03T04:02:00.483Z,2.9
2022-12-03T04:03:01.639Z,2.9
2022-12-03T04:04:00.894Z,2.9
2022-12-03T04:05:00.549Z,2.9
2022-12-03T04:06:00.545Z,2.9
2022-12-03T04:07:00.561Z,2.9
2022-12-03T04:08:00.718Z,2.9
2022-12-03T04:09:00.480Z,2.9
2022-12-03T04:10:00.484Z,2.9
2022-12-03T04:11:00.500Z,2.9
2022-12-03T04:12:00.506Z,2.9
2022-12-03T04:13:00.762Z,2.9
2022-12-03T04:14:00.545Z,2.9
2022-12-03T04:15:00.955Z,2.9
2022-12-03T04:16:00.534Z,2.9
2022-12-03T04:17:00.557Z,2.9
2022-12-03T04:18:00.473Z,2.9
2022-12-03T04:19:00.620Z,2.9
2022-12-03T04:20:00.503Z,2.9
2022-12-03T04:21:00.511Z,2.9
2022-12-03T04:22:00.501Z,2.9
2022-12-03T04:23:00.504Z,2.9
2022-12-03T04:24:00.757Z,2.9
2022-12-03T04:25:00.617Z,2.9
2022-12-03T04:26:00.469Z,2.9
2022-12-03T04:27:00.502Z,2.9
2022-12-03T04:28:00.477Z,2.9
2022-12-03T04:29:00.618Z,2.9
2022-12-03T04:30:00.552Z,2.9
2022-12-03T04:31:00.511Z,2.9
2022-12-03T04:32:00.538Z,2.9
2022-12-03T04:33:00.525Z,2.9
2022-12-03T04:34:00.523Z,2.9
2022-12-03T04:35:00.527Z,2.9
2022-12-03T04:36:00.611Z,2.9
2022-12-03T04:37:00.711Z,2.9
2022-12-03T04:38:00.500Z,2.9
2022-12-03T04:39:00.717Z,2.9
2022-12-03T04:40:00.495Z,2.9
2022-12-03T04:41:00.734Z,3.0
2022-12-03T04:42:00.524Z,3.0
2022-12-03T04:43:00.519Z,3.0
2022-12-03T04:44:00.509Z,3.0
2022-12-03T04:45:00.479Z,3.0
2022-12-03T04:46:01.516Z,3.0
2022-12-03T04:47:03.466Z,3.0
2022-12-03T04:48:00.476Z,3.0
2022-12-03T04:49:00.488Z,3.0
2022-12-03T04:50:00.503Z,3.0
2022-12-03T04:51:00.477Z,3.0
2022-12-03T04:52:00.660Z,3.0
2022-12-03T04:53:00.504Z,3.0
2022-12-03T04:54:00.666Z,3.0
2022-12-03T04:55:00.480Z,3.0
2022-12-03T04:56:00.496Z,3.0
2022-12-03T04:57:00.580Z,3.0
2022-12-03T04:58:00.479Z,3.0
2022-12-03T04:59:00.470Z,3.0
2022-12-03T05:00:00.622Z,3.0
2022-12-03T05:01:00.502Z,3.1
2022-12-03T05:02:00.863Z,3.1
2022-12-03T05:03:00.538Z,3.1
2022-12-03T05:04:00.498Z,3.1
2022-12-03T05:05:00.502Z,3.1
2022-12-03T05:06:00.534Z,3.1
2022-12-03T05:07:00.767Z,3.1
2022-12-03T05:08:00.536Z,3.1
2022-12-03T05:09:00.767Z,3.1
2022-12-03T05:10:00.489Z,3.1
2022-12-03T05:11:00.506Z,3.1
2022-12-03T05:12:00.539Z,3.1
2022-12-03T05:13:00.508Z,3.1
2022-12-03T05:14:00.532Z,3.1
2022-12-03T05:15:00.499Z,3.1
2022-12-03T05:16:00.533Z,3.1
2022-12-03T05:17:00.511Z,3.1
2022-12-03T05:18:00.507Z,3.1
2022-12-03T05:19:00.810Z,3.1
2022-12-03T05:20:00.484Z,3.1
2022-12-03T05:21:00.501Z,2.6
2022-12-03T05:22:00.478Z,2.6
2022-12-03T05:23:00.490Z,2.6
2022-12-03T05:24:00.653Z,2.6
2022-12-03T05:25:00.518Z,2.6
2022-12-03T05:26:00.536Z,2.6
2022-12-03T05:27:00.509Z,2.6
2022-12-03T05:28:00.507Z,2.6
2022-12-03T05:29:00.540Z,2.6
2022-12-03T05:30:00.599Z,2.6
2022-12-03T05:31:00.651Z,2.6
2022-12-03T05:32:00.475Z,2.6
2022-12-03T05:33:00.519Z,2.6
2022-12-03T05:34:00.490Z,2.6
2022-12-03T05:35:00.483Z,2.6
2022-12-03T05:36:00.478Z,2.6
2022-12-03T05:37:00.475Z,2.6
2022-12-03T05:38:00.480Z,2.6
2022-12-03T05:39:00.474Z,2.6
2022-12-03T05:40:00.535Z,2.6
2022-12-03T05:41:00.531Z,2.7
2022-12-03T05:42:00.513Z,2.7
2022-12-03T05:43:00.489Z,2.7
2022-12-03T05:44:00.498Z,2.7
2022-12-03T05:45:00.473Z,2.7
2022-12-03T05:46:00.530Z,2.7
2022-12-03T05:47:00.479Z,2.7
2022-12-03T05:48:01.122Z,2.7
2022-12-03T05:49:00.511Z,2.7
2022-12-03T05:50:00.700Z,2.7
2022-12-03T05:51:00.475Z,2.7
2022-12-03T05:52:00.526Z,2.7
2022-12-03T05:53:00.485Z,2.7
2022-12-03T05:54:00.909Z,2.7
2022-12-03T05:55:00.732Z,2.7
2022-12-03T05:56:00.504Z,2.7
2022-12-03T05:57:00.500Z,2.7
2022-12-03T05:58:00.664Z,2.7
2022-12-03T05:59:00.469Z,2.7
2022-12-03T06:00:00.540Z,4.4
2022-12-03T06:01:00.492Z,4.4
2022-12-03T06:02:00.569Z,4.4
2022-12-03T06:03:00.570Z,4.4
2022-12-03T06:04:00.557Z,4.4
2022-12-03T06:05:00.487Z,4.4
2022-12-03T06:06:00.903Z,4.4
2022-12-03T06:07:00.535Z,4.4
2022-12-03T06:08:00.600Z,4.4
2022-12-03T06:09:00.516Z,4.4
2022-12-03T06:10:00.530Z,4.4
2022-12-03T06:11:00.495Z,4.4
2022-12-03T06:12:00.548Z,4.4
2022-12-03T06:13:00.470Z,4.4
2022-12-03T06:14:00.481Z,4.4
2022-12-03T06:15:00.942Z,4.4
2022-12-03T06:16:00.551Z,4.4
2022-12-03T06:17:01.238Z,4.4
2022-12-03T06:18:00.508Z,4.4
2022-12-03T06:19:00.525Z,4.4
2022-12-03T06:20:00.831Z,3.3
2022-12-03T06:21:00.584Z,3.3
2022-12-03T06:22:00.478Z,3.3
2022-12-03T06:23:00.498Z,3.3
2022-12-03T06:24:00.571Z,3.3
2022-12-03T06:25:05.090Z,3.3
2022-12-03T06:26:00.488Z,3.3
2022-12-03T06:27:00.477Z,3.3
2022-12-03T06:28:00.510Z,3.3
2022-12-03T06:29:00.498Z,3.3
2022-12-03T06:30:00.999Z,3.3
2022-12-03T06:31:00.548Z,3.3
2022-12-03T06:32:00.561Z,3.3
2022-12-03T06:33:00.628Z,3.3
2022-12-03T06:34:00.528Z,3.3
2022-12-03T06:35:00.527Z,3.3
2022-12-03T06:36:00.489Z,3.3
2022-12-03T06:37:00.591Z,3.3
2022-12-03T06:38:00.517Z,3.3
2022-12-03T06:39:00.559Z,3.3
2022-12-03T06:40:00.614Z,2.7
2022-12-03T06:41:00.520Z,2.7
2022-12-03T06:42:00.585Z,2.7
2022-12-03T06:43:00.506Z,2.7
2022-12-03T06:44:00.505Z,2.7
2022-12-03T06:45:00.540Z,2.7
2022-12-03T06:46:00.604Z,2.7
2022-12-03T06:47:00.579Z,2.7
2022-12-03T06:48:00.503Z,2.7
2022-12-03T06:49:00.479Z,2.7
2022-12-03T06:50:00.473Z,2.7
2022-12-03T06:51:00.536Z,2.7
2022-12-03T06:52:00.493Z,2.7
2022-12-03T06:53:00.482Z,2.7
2022-12-03T06:54:00.563Z,2.7
2022-12-03T06:55:00.515Z,2.7
2022-12-03T06:56:00.535Z,2.7
2022-12-03T06:57:00.507Z,2.7
2022-12-03T06:58:00.503Z,2.7
2022-12-03T06:59:00.502Z,2.7
2022-12-03T07:00:00.479Z,3.0
2022-12-03T07:01:00.509Z,3.0
2022-12-03T07:02:00.513Z,3.0
2022-12-03T07:03:00.590Z,3.0
2022-12-03T07:04:00.500Z,3.0
2022-12-03T07:05:00.511Z,3.0
2022-12-03T07:06:00.496Z,3.0
2022-12-03T07:07:00.485Z,3.0
2022-12-03T07:08:00.532Z,3.0
2022-12-03T07:09:00.487Z,3.0
2022-12-03T07:10:00.517Z,3.0
2022-12-03T07:11:00.532Z,3.0
2022-12-03T07:12:00.592Z,3.0
2022-12-03T07:13:00.515Z,3.0
2022-12-03T07:14:05.201Z,3.0
2022-12-03T07:15:00.491Z,3.0
2022-12-03T07:16:00.496Z,3.0
2022-12-03T07:17:00.509Z,3.0
2022-12-03T07:18:00.529Z,3.0
2022-12-03T07:19:00.729Z,3.0
2022-12-03T07:20:00.536Z,2.7
2022-12-03T07:21:00.505Z,2.7
2022-12-03T07:22:00.534Z,2.7
2022-12-03T07:23:00.496Z,2.7
2022-12-03T07:24:00.520Z,2.7
2022-12-03T07:25:00.698Z,2.7
2022-12-03T07:26:00.510Z,2.7
2022-12-03T07:27:00.546Z,2.7
2022-12-03T07:28:00.495Z,2.7
2022-12-03T07:29:00.494Z,2.7
2022-12-03T07:30:00.498Z,2.7
2022-12-03T07:31:00.590Z,2.7
2022-12-03T07:32:00.482Z,2.7
2022-12-03T07:33:00.551Z,2.7
2022-12-03T07:34:00.501Z,2.7
2022-12-03T07:35:00.474Z,2.7
2022-12-03T07:36:00.483Z,2.7
2022-12-03T07:37:00.505Z,2.7
2022-12-03T07:38:00.475Z,2.7
2022-12-03T07:39:00.500Z,2.7
2022-12-03T07:40:00.683Z,3.1
2022-12-03T07:41:00.562Z,3.1
2022-12-03T07:42:00.858Z,3.1
2022-12-03T07:43:00.505Z,3.1
2022-12-03T07:44:00.500Z,3.1
2022-12-03T07:45:00.494Z,3.1
2022-12-03T07:46:00.477Z,3.1
2022-12-03T07:47:00.558Z,3.1
2022-12-03T07:48:00.491Z,3.1
2022-12-03T07:49:00.529Z,3.1
2022-12-03T07:50:00.519Z,3.1
2022-12-03T07:51:00.521Z,3.1
2022-12-03T07:52:00.518Z,3.1
2022-12-03T07:53:00.490Z,3.1
2022-12-03T07:54:00.508Z,3.1
2022-12-03T07:55:00.519Z,3.1
2022-12-03T07:56:01.307Z,3.1
2022-12-03T07:57:01.826Z,3.1
2022-12-03T07:58:00.491Z,3.1
2022-12-03T07:59:00.475Z,3.1
2022-12-03T08:00:00.577Z,3.1
2022-12-03T08:01:00.575Z,3.1
2022-12-03T08:02:00.556Z,3.1
2022-12-03T08:03:00.513Z,3.1
2022-12-03T08:04:00.475Z,3.1
2022-12-03T08:05:00.480Z,3.1
2022-12-03T08:06:00.632Z,3.1
2022-12-03T08:07:00.478Z,3.1
2022-12-03T08:08:00.641Z,3.1
2022-12-03T08:09:00.504Z,3.1
2022-12-03T08:10:00.481Z,3.1
2022-12-03T08:11:01.151Z,3.1
2022-12-03T08:12:05.466Z,3.1
2022-12-03T08:13:01.686Z,3.1
2022-12-03T08:14:00.941Z,3.1
2022-12-03T08:15:00.641Z,3.1
2022-12-03T08:16:09.314Z,3.1
2022-12-03T08:17:00.508Z,3.1
2022-12-03T08:18:04.094Z,3.1
2022-12-03T08:19:01.091Z,3.1
2022-12-03T08:20:00.622Z,2.9
2022-12-03T08:21:00.506Z,2.9
2022-12-03T08:22:01.635Z,2.9
2022-12-03T08:23:02.690Z,2.9
2022-12-03T08:24:10.416Z,2.9
2022-12-03T08:25:00.526Z,2.9
2022-12-03T08:26:00.481Z,2.9
2022-12-03T08:27:00.782Z,2.9
2022-12-03T08:28:10.411Z,2.9
2022-12-03T08:29:00.770Z,2.9
2022-12-03T08:30:02.500Z,2.9
2022-12-03T08:31:03.863Z,2.9
2022-12-03T08:32:00.574Z,2.9
2022-12-03T08:33:00.727Z,2.9
2022-12-03T08:34:10.421Z,2.9
2022-12-03T08:35:00.895Z,2.9
2022-12-03T08:36:10.433Z,2.9
2022-12-03T08:37:04.558Z,2.9
2022-12-03T08:38:04.564Z,2.9
2022-12-03T08:39:10.420Z,3.2
2022-12-03T08:40:00.566Z,3.2
2022-12-03T08:41:00.477Z,3.2
2022-12-03T08:42:13.516Z,3.2
2022-12-03T08:43:00.627Z,3.2
2022-12-03T08:44:07.973Z,3.2
2022-12-03T08:45:10.438Z,3.2
2022-12-03T08:46:00.631Z,3.2
2022-12-03T08:47:08.016Z,3.2
2022-12-03T08:48:04.747Z,3.2
2022-12-03T08:49:00.498Z,3.2
2022-12-03T08:50:07.670Z,3.2
2022-12-03T08:51:02.779Z,3.2
2022-12-03T08:52:08.387Z,3.2
2022-12-03T08:53:07.950Z,3.2
2022-12-03T08:54:06.390Z,3.2
2022-12-03T08:55:10.422Z,3.2
2022-12-03T08:56:02.479Z,3.2
2022-12-03T08:57:05.538Z,3.2
2022-12-03T08:58:10.443Z,3.2
2022-12-03T08:59:10.419Z,2.8
2022-12-03T09:00:10.444Z,2.8
2022-12-03T09:01:08.051Z,2.8
2022-12-03T09:02:00.769Z,2.8
2022-12-03T09:03:00.511Z,2.8
2022-12-03T09:04:10.477Z,2.8
2022-12-03T09:05:10.413Z,2.8
2022-12-03T09:06:00.561Z,2.8
2022-12-03T09:07:00.484Z,2.8
2022-12-03T09:08:00.569Z,2.8
2022-12-03T09:09:06.389Z,2.8
2022-12-03T09:10:00.507Z,2.8
2022-12-03T09:11:00.503Z,2.8
2022-12-03T09:12:00.904Z,2.8
2022-12-03T09:13:00.518Z,2.8
2022-12-03T09:14:00.501Z,2.8
2022-12-03T09:15:00.572Z,2.8
2022-12-03T09:16:00.514Z,2.8
2022-12-03T09:17:00.671Z,2.8
2022-12-03T09:18:00.489Z,2.8
2022-12-03T09:19:00.534Z,4.0
2022-12-03T09:20:00.680Z,4.0
2022-12-03T09:21:00.545Z,4.0
2022-12-03T09:22:00.498Z,4.0
2022-12-03T09:23:00.538Z,4.0
2022-12-03T09:24:00.484Z,4.0
2022-12-03T09:25:00.498Z,4.0
2022-12-03T09:26:00.490Z,4.0
2022-12-03T09:27:00.486Z,4.0
2022-12-03T09:28:00.523Z,4.0
2022-12-03T09:29:00.506Z,4.0
2022-12-03T09:30:00.585Z,4.0
2022-12-03T09:31:00.500Z,4.0
2022-12-03T09:32:00.620Z,4.0
2022-12-03T09:33:00.503Z,4.0
2022-12-03T09:34:01.758Z,4.0
2022-12-03T09:35:00.553Z,4.0
2022-12-03T09:36:00.509Z,4.0
2022-12-03T09:37:00.481Z,4.0
2022-12-03T09:38:00.500Z,4.0
2022-12-03T09:39:00.483Z,3.8
2022-12-03T09:40:00.516Z,3.8
2022-12-03T09:41:00.567Z,3.8
2022-12-03T09:42:01.003Z,3.8
2022-12-03T09:43:00.674Z,3.8
2022-12-03T09:44:05.117Z,3.8
2022-12-03T09:45:01.057Z,3.8
2022-12-03T09:46:00.613Z,3.8
2022-12-03T09:47:01.397Z,3.8
2022-12-03T09:48:00.781Z,3.8
2022-12-03T09:49:01.114Z,3.8
2022-12-03T09:50:00.508Z,3.8
2022-12-03T09:51:00.764Z,3.8
2022-12-03T09:52:01.727Z,3.8
2022-12-03T09:53:01.796Z,3.8
2022-12-03T09:54:01.541Z,3.8
2022-12-03T09:55:04.374Z,3.8
2022-12-03T09:56:00.557Z,3.8
2022-12-03T09:57:02.140Z,3.8
2022-12-03T09:58:00.940Z,3.8
2022-12-03T09:59:01.163Z,3.1
2022-12-03T10:00:00.521Z,3.1
2022-12-03T10:01:00.582Z,3.1
2022-12-03T10:02:01.708Z,3.1
2022-12-03T10:03:01.681Z,3.1
2022-12-03T10:04:00.733Z,3.1
2022-12-03T10:05:00.736Z,3.1
2022-12-03T10:06:00.557Z,3.1
2022-12-03T10:07:00.487Z,3.1
2022-12-03T10:08:05.572Z,3.1
2022-12-03T10:09:00.492Z,3.1
2022-12-03T10:10:00.551Z,3.1
2022-12-03T10:11:00.496Z,3.1
2022-12-03T10:12:00.528Z,3.1
2022-12-03T10:13:00.561Z,3.1
2022-12-03T10:14:00.508Z,3.1
2022-12-03T10:15:00.718Z,3.1
2022-12-03T10:16:00.497Z,3.1
2022-12-03T10:17:00.595Z,3.1
2022-12-03T10:18:09.825Z,3.1
2022-12-03T10:19:00.533Z,3.2
2022-12-03T10:20:00.955Z,3.2
2022-12-03T10:21:00.500Z,3.2
2022-12-03T10:22:00.515Z,3.2
2022-12-03T10:23:00.483Z,3.2
2022-12-03T10:24:10.444Z,3.2
2022-12-03T10:25:09.252Z,3.2
2022-12-03T10:26:01.336Z,3.2
2022-12-03T10:27:02.242Z,3.2
2022-12-03T10:28:01.674Z,3.2
2022-12-03T10:29:00.507Z,3.2
2022-12-03T10:30:01.495Z,3.2
2022-12-03T10:31:01.978Z,3.2
2022-12-03T10:32:03.137Z,3.2
2022-12-03T10:33:13.222Z,3.2
2022-12-03T10:34:00.490Z,3.2
2022-12-03T10:35:08.171Z,3.2
2022-12-03T10:36:10.447Z,3.2
2022-12-03T10:37:10.439Z,3.2
2022-12-03T10:38:00.464Z,3.2
2022-12-03T10:39:10.439Z,3.2
2022-12-03T10:40:00.508Z,3.2
2022-12-03T10:41:10.417Z,3.2
2022-12-03T10:42:10.445Z,3.2
2022-12-03T10:43:10.416Z,3.2
2022-12-03T10:44:10.412Z,3.2
2022-12-03T10:45:08.075Z,3.2
2022-12-03T10:46:03.573Z,3.2
2022-12-03T10:47:05.224Z,3.2
2022-12-03T10:48:01.640Z,3.2
2022-12-03T10:49:09.694Z,3.2
2022-12-03T10:50:03.214Z,3.2
2022-12-03T10:51:02.956Z,3.2
2022-12-03T10:52:00.802Z,3.2
2022-12-03T10:53:00.997Z,3.2
2022-12-03T10:54:01.122Z,3.2
2022-12-03T10:55:00.513Z,3.2
2022-12-03T10:56:02.478Z,3.2
2022-12-03T10:57:00.972Z,3.2
2022-12-03T10:58:00.597Z,3.2
2022-12-03T10:59:00.509Z,2.9
2022-12-03T11:00:00.535Z,2.9
2022-12-03T11:01:01.850Z,2.9
2022-12-03T11:02:02.425Z,2.9
2022-12-03T11:03:00.540Z,2.9
2022-12-03T11:04:02.485Z,2.9
2022-12-03T11:05:00.493Z,2.9
2022-12-03T11:06:00.965Z,2.9
2022-12-03T11:07:01.229Z,2.9
2022-12-03T11:08:00.662Z,2.9
2022-12-03T11:09:06.895Z,2.9
2022-12-03T11:10:00.521Z,2.9
2022-12-03T11:11:02.421Z,2.9
2022-12-03T11:12:05.028Z,2.9
2022-12-03T11:13:10.438Z,2.9
2022-12-03T11:14:01.866Z,2.9
2022-12-03T11:15:01.188Z,2.9
2022-12-03T11:16:01.861Z,2.9
2022-12-03T11:17:00.483Z,2.9
2022-12-03T11:18:00.504Z,2.9
2022-12-03T11:19:01.041Z,3.0
2022-12-03T11:20:00.519Z,3.0
2022-12-03T11:21:01.928Z,3.0
2022-12-03T11:22:03.757Z,3.0
2022-12-03T11:23:00.522Z,3.0
2022-12-03T11:24:01.936Z,3.0
2022-12-03T11:25:10.417Z,3.0
2022-12-03T11:26:00.531Z,3.0
2022-12-03T11:27:00.461Z,3.0
2022-12-03T11:28:10.414Z,3.0
2022-12-03T11:29:00.476Z,3.0
2022-12-03T11:30:00.716Z,3.0
2022-12-03T11:31:02.638Z,3.0
2022-12-03T11:32:00.506Z,3.0
2022-12-03T11:33:00.511Z,3.0
2022-12-03T11:34:10.443Z,3.0
2022-12-03T11:35:00.559Z,3.0
2022-12-03T11:36:01.471Z,3.0
2022-12-03T11:37:10.442Z,3.0
2022-12-03T11:38:10.453Z,3.0
2022-12-03T11:39:00.501Z,3.4
2022-12-03T11:44:04.707Z,3.4
2022-12-03T11:45:03.511Z,3.4
2022-12-03T11:46:07.320Z,3.4
2022-12-03T11:47:07.127Z,3.4
2022-12-03T11:48:02.327Z,3.4
2022-12-03T11:49:00.501Z,3.4
2022-12-03T11:50:00.337Z,3.4
2022-12-03T11:51:00.324Z,3.4
2022-12-03T11:52:01.413Z,3.4
2022-12-03T11:53:06.952Z,3.4
2022-12-03T11:54:00.298Z,3.4
2022-12-03T11:55:02.348Z,3.4
2022-12-03T11:56:04.577Z,3.4
2022-12-03T11:57:00.305Z,3.4
2022-12-03T11:58:02.079Z,3.4
2022-12-03T11:59:01.402Z,2.8
2022-12-03T12:00:03.023Z,2.8
2022-12-03T12:01:01.687Z,2.8
2022-12-03T12:02:00.256Z,2.8
2022-12-03T12:03:00.390Z,2.8
2022-12-03T12:04:00.485Z,2.8
2022-12-03T12:05:10.183Z,2.8
2022-12-03T12:06:05.004Z,2.8
2022-12-03T12:07:00.658Z,2.8
2022-12-03T12:08:01.230Z,2.8
2022-12-03T12:09:00.270Z,2.8
2022-12-03T12:10:00.286Z,2.8
2022-12-03T12:11:01.080Z,2.8
2022-12-03T12:12:10.208Z,2.8
2022-12-03T12:13:00.306Z,2.8
2022-12-03T12:14:02.520Z,2.8
2022-12-03T12:15:10.184Z,2.8
2022-12-03T12:16:01.188Z,2.8
2022-12-03T12:17:00.246Z,2.8
2022-12-03T12:18:10.207Z,3.1
2022-12-03T12:19:10.211Z,3.1
2022-12-03T12:20:10.208Z,3.1
2022-12-03T12:21:10.207Z,3.1
2022-12-03T12:22:10.183Z,3.1
2022-12-03T12:23:10.205Z,3.1
2022-12-03T12:24:10.207Z,3.1
2022-12-03T12:25:02.070Z,3.1
2022-12-03T12:26:07.523Z,3.1
2022-12-03T12:27:03.290Z,3.1
2022-12-03T12:28:00.275Z,3.1
2022-12-03T12:29:00.266Z,3.1
2022-12-03T12:30:03.697Z,3.1
2022-12-03T12:31:00.292Z,3.1
2022-12-03T12:32:09.877Z,3.1
2022-12-03T12:33:06.286Z,3.1
2022-12-03T12:34:00.363Z,3.1
2022-12-03T12:35:01.298Z,3.1
2022-12-03T12:36:04.442Z,3.1
2022-12-03T12:39:00.247Z,3.0
2022-12-03T12:40:05.247Z,3.0
2022-12-03T12:41:03.893Z,3.0
2022-12-03T12:42:01.566Z,3.0
2022-12-03T12:43:08.196Z,3.0
2022-12-03T12:44:00.395Z,3.0
2022-12-03T12:45:07.732Z,3.0
2022-12-03T12:46:24.921Z,3.0
2022-12-03T12:47:04.158Z,3.0
2022-12-03T12:48:09.614Z,3.0
2022-12-03T12:49:00.246Z,3.0
2022-12-03T12:50:00.448Z,3.0
2022-12-03T12:51:10.182Z,3.0
2022-12-03T12:52:00.286Z,3.0
2022-12-03T12:53:02.838Z,3.0
2022-12-03T12:54:00.820Z,3.0
2022-12-03T12:55:04.943Z,3.0
2022-12-03T12:56:05.563Z,3.0
2022-12-03T12:57:00.330Z,3.0
2022-12-03T12:58:02.095Z,2.7
2022-12-03T12:59:09.164Z,2.7
2022-12-03T13:00:01.178Z,2.7
2022-12-03T13:01:03.549Z,2.7
2022-12-03T13:02:01.117Z,2.7
2022-12-03T13:03:01.294Z,2.7
2022-12-03T13:04:00.427Z,2.7
2022-12-03T13:05:01.578Z,2.7
2022-12-03T13:06:00.841Z,2.7
2022-12-03T13:07:00.320Z,2.7
2022-12-03T13:08:01.236Z,2.7
2022-12-03T13:09:00.330Z,2.7
2022-12-03T13:10:10.205Z,2.7
2022-12-03T13:11:00.841Z,2.7
2022-12-03T13:12:00.973Z,2.7
2022-12-03T13:13:10.190Z,2.7
2022-12-03T13:14:04.398Z,2.7
2022-12-03T13:15:00.294Z,2.7
2022-12-03T13:16:03.092Z,2.7
2022-12-03T13:17:00.916Z,2.7
2022-12-03T13:18:00.469Z,2.9
2022-12-03T13:19:00.758Z,2.9
2022-12-03T13:20:07.528Z,2.9
2022-12-03T13:21:10.186Z,2.9
2022-12-03T13:22:01.710Z,2.9
2022-12-03T13:23:00.274Z,2.9
2022-12-03T13:24:00.587Z,2.9
2022-12-03T13:25:02.616Z,2.9
2022-12-03T13:26:10.266Z,2.9
2022-12-03T13:27:04.267Z,2.9
2022-12-03T13:28:00.361Z,2.9
2022-12-03T13:29:05.149Z,2.9
2022-12-03T13:30:05.770Z,2.9
2022-12-03T13:31:10.271Z,2.9
2022-12-03T13:32:01.625Z,2.9
2022-12-03T13:33:05.087Z,2.9
2022-12-03T13:39:00.951Z,2.9
2022-12-03T13:40:10.270Z,2.9
2022-12-03T13:41:01.154Z,2.9
2022-12-03T13:42:10.201Z,2.9
2022-12-03T13:43:03.432Z,2.9
2022-12-03T13:44:00.391Z,2.9
2022-12-03T13:45:00.704Z,2.9
2022-12-03T13:46:00.475Z,2.9
2022-12-03T13:47:09.379Z,2.9
2022-12-03T13:48:03.234Z,2.9
2022-12-03T13:49:01.823Z,2.9
2022-12-03T13:50:01.118Z,2.9
2022-12-03T13:51:06.722Z,2.9
2022-12-03T13:52:00.269Z,2.9
2022-12-03T13:53:01.857Z,2.9
2022-12-03T13:54:00.273Z,2.9
2022-12-03T13:55:01.385Z,2.9
2022-12-03T13:56:10.203Z,2.9
2022-12-03T13:57:00.280Z,2.9